Greater Moncton International Airport


Codes: CYQM/YQM
Name: Greater Moncton International Airport
City: Moncton
Country: Canada
Elevation: 232 ft.
Wikipedia:

Photos at Greater Moncton International Airport


   Photos courtesy of SpottingLog. You can add your own sightings and photos by signing up for a free trial today.



149907, 24-Aug-2023
© Mackenzie Cole

C-GHPJ, 09-Jul-2023
© Mackenzie Cole

C-GMFK, 09-Jul-2023
© Mackenzie Cole

C-GMFF, 09-Jul-2023
© Mackenzie Cole

C-FUWN, 09-Jul-2023
© Mackenzie Cole

C-GPUX, 09-Jul-2023
© Mackenzie Cole

C-FMZZ, 09-Jul-2023
© Mackenzie Cole

C-GXJZ, 17-Jul-2022
© Mackenzie Cole

C-GBIN, 17-Jul-2022
© Mackenzie Cole

C-FMXA, 09-Apr-2022
© Mackenzie Cole

C-GLQM, 09-Apr-2022
© Mackenzie Cole

C-FNTJ, 15-Mar-2022
© Stuart Tingley


Weather at Greater Moncton International Airport


Time (UTC)DescriptionTempratureWindCloud coverageVisibilityPressureHumidity
17-Jun-2024 06:00Broken Clouds13°C4 mph, SW75%10000m1020hPa71%
17-Jun-2024 09:00Broken Clouds12°C7 mph, SW67%10000m1021hPa71%
17-Jun-2024 12:00Broken Clouds16°C11 mph, SW56%10000m1021hPa59%
17-Jun-2024 15:00Overcast Clouds22°C11 mph, SW100%10000m1020hPa43%
17-Jun-2024 18:00Overcast Clouds23°C13 mph, SW100%10000m1019hPa40%
17-Jun-2024 21:00Overcast Clouds19°C11 mph, SW100%10000m1020hPa59%
18-Jun-2024 00:00Overcast Clouds16°C11 mph, SW100%10000m1022hPa67%
18-Jun-2024 03:00Overcast Clouds16°C11 mph, SW100%10000m1022hPa60%
18-Jun-2024 06:00Overcast Clouds15°C9 mph, SW89%10000m1022hPa57%
18-Jun-2024 09:00Overcast Clouds13°C7 mph, SW100%10000m1022hPa77%
18-Jun-2024 12:00Overcast Clouds18°C7 mph, SW100%10000m1023hPa73%
18-Jun-2024 15:00Overcast Clouds24°C7 mph, W100%10000m1023hPa59%
18-Jun-2024 18:00Overcast Clouds28°C4 mph, W97%10000m1022hPa49%
18-Jun-2024 21:00Overcast Clouds26°C4 mph, S100%10000m1021hPa66%
19-Jun-2024 00:00Overcast Clouds21°C7 mph, S100%10000m1022hPa83%
19-Jun-2024 03:00Overcast Clouds17°C4 mph, S100%10000m1023hPa89%
19-Jun-2024 06:00Overcast Clouds17°C7 mph, SW100%10000m1023hPa93%
19-Jun-2024 09:00Light Rain17°C7 mph, S95%10000m1022hPa93%
19-Jun-2024 12:00Overcast Clouds22°C9 mph, SW86%10000m1022hPa75%
19-Jun-2024 15:00Broken Clouds29°C11 mph, W69%10000m1022hPa57%
19-Jun-2024 18:00Broken Clouds34°C11 mph, W58%10000m1020hPa44%
19-Jun-2024 21:00Scattered Clouds34°C9 mph, SW44%10000m1018hPa49%
20-Jun-2024 00:00Scattered Clouds26°C7 mph, SW25%10000m1018hPa74%
20-Jun-2024 03:00Clear Sky24°C9 mph, SW0%10000m1019hPa71%
20-Jun-2024 06:00Few Clouds22°C9 mph, SW14%10000m1018hPa83%
20-Jun-2024 09:00Overcast Clouds23°C9 mph, SW100%10000m1018hPa83%
20-Jun-2024 12:00Overcast Clouds27°C11 mph, W95%10000m1017hPa71%
20-Jun-2024 15:00Overcast Clouds32°C11 mph, W93%10000m1017hPa51%
20-Jun-2024 18:00Overcast Clouds34°C13 mph, W96%10000m1016hPa44%
20-Jun-2024 21:00Light Rain27°C7 mph, NW99%10000m1016hPa72%
21-Jun-2024 00:00Light Rain21°C2 mph, E99%10000m1019hPa99%
21-Jun-2024 03:00Overcast Clouds18°C4 mph, NW100%10000m1020hPa93%
21-Jun-2024 06:00Overcast Clouds14°C4 mph, W100%10000m1020hPa90%
21-Jun-2024 09:00Few Clouds13°C4 mph, W20%10000m1021hPa87%
21-Jun-2024 12:00Scattered Clouds21°C9 mph, N35%10000m1022hPa48%
21-Jun-2024 15:00Scattered Clouds25°C9 mph, NW49%10000m1021hPa33%
21-Jun-2024 18:00Scattered Clouds26°C9 mph, NW47%10000m1020hPa32%
21-Jun-2024 21:00Broken Clouds21°C11 mph, NE74%10000m1021hPa43%
22-Jun-2024 00:00Broken Clouds15°C4 mph, S84%10000m1022hPa62%
22-Jun-2024 03:00Broken Clouds14°C4 mph, SW84%10000m1021hPa56%